< < Back
Terminal Aerodrome Forecast


Current Version              Previous Versions:   1  2  3  4  5  6  7  8  9  

Terminal Aerodrome Forecast

942
FTUS44 KOHX 302300
TAFCSV
TAF
KCSV 302321Z 3100/3124 34004KT P6SM SCT250
     FM310800 00000KT 5SM BR SCT250
     FM311300 14004KT P6SM SCT040 BKN200=

Latest METAR

680
SAUS70 KWBC 302300 RRB
MTRCSV
METAR KCSV 302253Z AUTO 30003KT 10SM CLR 22/14 A3012 RMK AO2 SLP188
T02220139


USA.gov is the U.S. government's official web portal to all federal, state and local government web resources and services.